sensor_id;sensor_type;location;lat;lon;timestamp;P1;durP1;ratioP1;P2;durP2;ratioP2
8411;SDS011;4243;49.296;11.348;2022-07-23T00:00:30;115.23;;;2.60;;
8411;SDS011;4243;49.296;11.348;2022-07-23T00:03:04;115.33;;;2.80;;
8411;SDS011;4243;49.296;11.348;2022-07-23T00:05:32;115.20;;;2.80;;
8411;SDS011;4243;49.296;11.348;2022-07-23T00:08:02;114.80;;;3.30;;
8411;SDS011;4243;49.296;11.348;2022-07-23T00:10:31;114.50;;;3.07;;
8411;SDS011;4243;49.296;11.348;2022-07-23T00:12:59;114.00;;;3.13;;
8411;SDS011;4243;49.296;11.348;2022-07-23T00:15:26;114.87;;;2.90;;
8411;SDS011;4243;49.296;11.348;2022-07-23T00:17:53;114.40;;;3.00;;
8411;SDS011;4243;49.296;11.348;2022-07-23T00:20:21;114.50;;;2.90;;
8411;SDS011;4243;49.296;11.348;2022-07-23T00:22:49;113.00;;;3.10;;
8411;SDS011;4243;49.296;11.348;2022-07-23T00:25:18;115.27;;;3.40;;
8411;SDS011;4243;49.296;11.348;2022-07-23T00:28:00;114.53;;;2.83;;
8411;SDS011;4243;49.296;11.348;2022-07-23T00:30:29;115.70;;;2.97;;
8411;SDS011;4243;49.296;11.348;2022-07-23T00:32:59;116.77;;;3.30;;
8411;SDS011;4243;49.296;11.348;2022-07-23T00:35:32;115.07;;;3.13;;
8411;SDS011;4243;49.296;11.348;2022-07-23T00:38:03;114.53;;;2.87;;
8411;SDS011;4243;49.296;11.348;2022-07-23T00:40:32;115.70;;;2.87;;
8411;SDS011;4243;49.296;11.348;2022-07-23T00:43:00;115.00;;;2.93;;
8411;SDS011;4243;49.296;11.348;2022-07-23T00:45:27;116.07;;;3.07;;
8411;SDS011;4243;49.296;11.348;2022-07-23T00:47:56;115.10;;;2.70;;
8411;SDS011;4243;49.296;11.348;2022-07-23T00:50:24;116.00;;;3.10;;
8411;SDS011;4243;49.296;11.348;2022-07-23T00:52:52;115.30;;;2.50;;
8411;SDS011;4243;49.296;11.348;2022-07-23T00:55:20;115.30;;;2.50;;
8411;SDS011;4243;49.296;11.348;2022-07-23T00:57:47;114.80;;;2.70;;
8411;SDS011;4243;49.296;11.348;2022-07-23T01:00:15;116.57;;;2.70;;
8411;SDS011;4243;49.296;11.348;2022-07-23T01:02:42;115.83;;;3.10;;
8411;SDS011;4243;49.296;11.348;2022-07-23T01:05:13;116.47;;;2.90;;
8411;SDS011;4243;49.296;11.348;2022-07-23T01:07:41;115.50;;;3.00;;
8411;SDS011;4243;49.296;11.348;2022-07-23T01:10:09;116.23;;;3.17;;
8411;SDS011;4243;49.296;11.348;2022-07-23T01:12:56;116.00;;;2.83;;
8411;SDS011;4243;49.296;11.348;2022-07-23T01:15:29;116.37;;;3.50;;
8411;SDS011;4243;49.296;11.348;2022-07-23T01:17:58;115.47;;;3.20;;
8411;SDS011;4243;49.296;11.348;2022-07-23T01:20:26;116.00;;;3.07;;
8411;SDS011;4243;49.296;11.348;2022-07-23T01:22:54;115.43;;;3.57;;
8411;SDS011;4243;49.296;11.348;2022-07-23T01:25:22;116.17;;;3.20;;
8411;SDS011;4243;49.296;11.348;2022-07-23T01:27:56;116.00;;;3.40;;
8411;SDS011;4243;49.296;11.348;2022-07-23T01:30:24;116.67;;;3.07;;
8411;SDS011;4243;49.296;11.348;2022-07-23T01:32:52;116.77;;;3.20;;
8411;SDS011;4243;49.296;11.348;2022-07-23T01:35:20;116.57;;;3.00;;
8411;SDS011;4243;49.296;11.348;2022-07-23T01:37:50;115.70;;;3.20;;
8411;SDS011;4243;49.296;11.348;2022-07-23T01:40:18;116.57;;;3.33;;
8411;SDS011;4243;49.296;11.348;2022-07-23T01:42:49;115.97;;;3.63;;
8411;SDS011;4243;49.296;11.348;2022-07-23T01:45:17;115.83;;;3.97;;
8411;SDS011;4243;49.296;11.348;2022-07-23T01:47:48;115.47;;;3.53;;
8411;SDS011;4243;49.296;11.348;2022-07-23T01:50:16;115.50;;;4.20;;
8411;SDS011;4243;49.296;11.348;2022-07-23T01:52:58;116.70;;;4.20;;
8411;SDS011;4243;49.296;11.348;2022-07-23T01:55:26;117.07;;;5.70;;
8411;SDS011;4243;49.296;11.348;2022-07-23T01:57:54;118.27;;;6.27;;
8411;SDS011;4243;49.296;11.348;2022-07-23T02:00:26;120.27;;;7.07;;
8411;SDS011;4243;49.296;11.348;2022-07-23T02:02:54;119.07;;;6.77;;
8411;SDS011;4243;49.296;11.348;2022-07-23T02:05:22;117.10;;;7.23;;
8411;SDS011;4243;49.296;11.348;2022-07-23T02:07:49;116.37;;;7.13;;
8411;SDS011;4243;49.296;11.348;2022-07-23T02:10:17;118.17;;;8.23;;
8411;SDS011;4243;49.296;11.348;2022-07-23T02:12:44;119.37;;;9.00;;
8411;SDS011;4243;49.296;11.348;2022-07-23T02:15:11;118.87;;;9.10;;
8411;SDS011;4243;49.296;11.348;2022-07-23T02:17:39;120.80;;;10.73;;
8411;SDS011;4243;49.296;11.348;2022-07-23T02:20:08;119.10;;;11.20;;
8411;SDS011;4243;49.296;11.348;2022-07-23T02:22:37;119.27;;;11.67;;
8411;SDS011;4243;49.296;11.348;2022-07-23T02:25:05;122.77;;;12.90;;
8411;SDS011;4243;49.296;11.348;2022-07-23T02:27:34;120.67;;;11.90;;
8411;SDS011;4243;49.296;11.348;2022-07-23T02:30:05;120.70;;;13.07;;
8411;SDS011;4243;49.296;11.348;2022-07-23T02:32:33;121.00;;;14.43;;
8411;SDS011;4243;49.296;11.348;2022-07-23T02:35:02;122.77;;;14.90;;
8411;SDS011;4243;49.296;11.348;2022-07-23T02:37:31;123.00;;;14.47;;
8411;SDS011;4243;49.296;11.348;2022-07-23T02:39:59;121.93;;;13.40;;
8411;SDS011;4243;49.296;11.348;2022-07-23T02:42:27;122.87;;;15.20;;
8411;SDS011;4243;49.296;11.348;2022-07-23T02:44:55;122.40;;;16.57;;
8411;SDS011;4243;49.296;11.348;2022-07-23T02:47:22;123.37;;;15.77;;
8411;SDS011;4243;49.296;11.348;2022-07-23T02:49:50;122.97;;;16.67;;
8411;SDS011;4243;49.296;11.348;2022-07-23T02:52:17;121.00;;;14.70;;
8411;SDS011;4243;49.296;11.348;2022-07-23T02:54:46;122.40;;;15.00;;
8411;SDS011;4243;49.296;11.348;2022-07-23T02:57:15;121.37;;;11.73;;
8411;SDS011;4243;49.296;11.348;2022-07-23T02:59:42;122.57;;;14.97;;
8411;SDS011;4243;49.296;11.348;2022-07-23T03:02:10;121.37;;;12.50;;
8411;SDS011;4243;49.296;11.348;2022-07-23T03:04:37;120.17;;;12.67;;
8411;SDS011;4243;49.296;11.348;2022-07-23T03:07:05;120.20;;;12.03;;
8411;SDS011;4243;49.296;11.348;2022-07-23T03:09:32;119.57;;;10.27;;
8411;SDS011;4243;49.296;11.348;2022-07-23T03:12:00;117.90;;;9.47;;
8411;SDS011;4243;49.296;11.348;2022-07-23T03:14:40;117.53;;;8.23;;
8411;SDS011;4243;49.296;11.348;2022-07-23T03:17:08;118.13;;;6.47;;
8411;SDS011;4243;49.296;11.348;2022-07-23T03:19:36;121.27;;;7.07;;
8411;SDS011;4243;49.296;11.348;2022-07-23T03:22:06;117.80;;;6.00;;
8411;SDS011;4243;49.296;11.348;2022-07-23T03:24:33;116.60;;;5.90;;
8411;SDS011;4243;49.296;11.348;2022-07-23T03:27:26;116.00;;;5.47;;
8411;SDS011;4243;49.296;11.348;2022-07-23T03:29:57;115.53;;;5.77;;
8411;SDS011;4243;49.296;11.348;2022-07-23T03:32:26;117.50;;;4.90;;
8411;SDS011;4243;49.296;11.348;2022-07-23T03:34:54;115.70;;;5.03;;
8411;SDS011;4243;49.296;11.348;2022-07-23T03:37:23;117.27;;;4.87;;
8411;SDS011;4243;49.296;11.348;2022-07-23T03:39:51;116.50;;;4.37;;
8411;SDS011;4243;49.296;11.348;2022-07-23T03:42:19;115.67;;;4.13;;
8411;SDS011;4243;49.296;11.348;2022-07-23T03:44:46;115.90;;;4.13;;
8411;SDS011;4243;49.296;11.348;2022-07-23T03:47:14;114.77;;;3.40;;
8411;SDS011;4243;49.296;11.348;2022-07-23T03:49:43;115.67;;;3.47;;
8411;SDS011;4243;49.296;11.348;2022-07-23T03:52:11;115.37;;;3.47;;
8411;SDS011;4243;49.296;11.348;2022-07-23T03:54:38;115.90;;;3.43;;
8411;SDS011;4243;49.296;11.348;2022-07-23T03:57:06;115.47;;;3.13;;
8411;SDS011;4243;49.296;11.348;2022-07-23T03:59:33;115.10;;;3.20;;
8411;SDS011;4243;49.296;11.348;2022-07-23T04:02:01;115.03;;;3.00;;
8411;SDS011;4243;49.296;11.348;2022-07-23T04:04:29;115.20;;;3.23;;
8411;SDS011;4243;49.296;11.348;2022-07-23T04:06:57;114.93;;;3.47;;
8411;SDS011;4243;49.296;11.348;2022-07-23T04:09:25;115.70;;;4.00;;
8411;SDS011;4243;49.296;11.348;2022-07-23T04:11:52;116.07;;;4.50;;
8411;SDS011;4243;49.296;11.348;2022-07-23T04:14:20;116.27;;;5.20;;
8411;SDS011;4243;49.296;11.348;2022-07-23T04:16:48;117.20;;;6.90;;
8411;SDS011;4243;49.296;11.348;2022-07-23T04:19:16;117.40;;;6.90;;
8411;SDS011;4243;49.296;11.348;2022-07-23T04:21:55;119.37;;;9.70;;
8411;SDS011;4243;49.296;11.348;2022-07-23T04:24:23;118.57;;;10.23;;
8411;SDS011;4243;49.296;11.348;2022-07-23T04:26:51;120.87;;;14.10;;
8411;SDS011;4243;49.296;11.348;2022-07-23T04:29:19;121.63;;;16.10;;
8411;SDS011;4243;49.296;11.348;2022-07-23T04:31:48;123.87;;;17.70;;
8411;SDS011;4243;49.296;11.348;2022-07-23T04:34:16;123.57;;;19.07;;
8411;SDS011;4243;49.296;11.348;2022-07-23T04:36:44;123.30;;;16.97;;
8411;SDS011;4243;49.296;11.348;2022-07-23T04:39:12;123.77;;;17.50;;
8411;SDS011;4243;49.296;11.348;2022-07-23T04:41:41;122.17;;;19.27;;
8411;SDS011;4243;49.296;11.348;2022-07-23T04:44:08;123.80;;;18.73;;
8411;SDS011;4243;49.296;11.348;2022-07-23T04:46:37;122.17;;;17.73;;
8411;SDS011;4243;49.296;11.348;2022-07-23T04:49:06;123.67;;;16.97;;
8411;SDS011;4243;49.296;11.348;2022-07-23T04:51:33;122.90;;;16.77;;
8411;SDS011;4243;49.296;11.348;2022-07-23T04:54:01;120.37;;;15.47;;
8411;SDS011;4243;49.296;11.348;2022-07-23T04:56:28;122.27;;;15.10;;
8411;SDS011;4243;49.296;11.348;2022-07-23T04:58:56;121.87;;;13.70;;
8411;SDS011;4243;49.296;11.348;2022-07-23T05:01:24;119.97;;;14.23;;
8411;SDS011;4243;49.296;11.348;2022-07-23T05:03:51;121.07;;;13.40;;
8411;SDS011;4243;49.296;11.348;2022-07-23T05:06:19;120.67;;;13.37;;
8411;SDS011;4243;49.296;11.348;2022-07-23T05:08:47;120.90;;;13.60;;
8411;SDS011;4243;49.296;11.348;2022-07-23T05:11:14;120.70;;;13.50;;
8411;SDS011;4243;49.296;11.348;2022-07-23T05:13:43;119.50;;;12.73;;
8411;SDS011;4243;49.296;11.348;2022-07-23T05:16:10;120.47;;;14.03;;
8411;SDS011;4243;49.296;11.348;2022-07-23T05:18:38;120.90;;;13.30;;
8411;SDS011;4243;49.296;11.348;2022-07-23T05:21:06;121.17;;;13.57;;
8411;SDS011;4243;49.296;11.348;2022-07-23T05:23:33;119.87;;;13.10;;
8411;SDS011;4243;49.296;11.348;2022-07-23T05:26:01;120.87;;;12.97;;
8411;SDS011;4243;49.296;11.348;2022-07-23T05:28:30;119.33;;;12.77;;
8411;SDS011;4243;49.296;11.348;2022-07-23T05:30:58;119.70;;;13.03;;
8411;SDS011;4243;49.296;11.348;2022-07-23T05:33:27;121.50;;;15.07;;
8411;SDS011;4243;49.296;11.348;2022-07-23T05:35:59;121.67;;;15.30;;
8411;SDS011;4243;49.296;11.348;2022-07-23T05:38:33;120.87;;;16.50;;
8411;SDS011;4243;49.296;11.348;2022-07-23T05:41:02;122.80;;;18.13;;
8411;SDS011;4243;49.296;11.348;2022-07-23T05:43:31;122.90;;;17.90;;
8411;SDS011;4243;49.296;11.348;2022-07-23T05:46:03;121.13;;;15.00;;
8411;SDS011;4243;49.296;11.348;2022-07-23T05:48:32;121.37;;;16.00;;
8411;SDS011;4243;49.296;11.348;2022-07-23T05:51:05;120.47;;;14.83;;
8411;SDS011;4243;49.296;11.348;2022-07-23T05:53:34;119.30;;;12.87;;
8411;SDS011;4243;49.296;11.348;2022-07-23T05:56:08;117.37;;;9.67;;
8411;SDS011;4243;49.296;11.348;2022-07-23T05:58:37;116.67;;;7.57;;
8411;SDS011;4243;49.296;11.348;2022-07-23T06:01:05;116.17;;;6.93;;
8411;SDS011;4243;49.296;11.348;2022-07-23T06:03:41;115.23;;;5.70;;
8411;SDS011;4243;49.296;11.348;2022-07-23T06:06:09;112.30;;;4.60;;
8411;SDS011;4243;49.296;11.348;2022-07-23T06:08:36;113.97;;;3.90;;
8411;SDS011;4243;49.296;11.348;2022-07-23T06:11:06;113.07;;;2.63;;
8411;SDS011;4243;49.296;11.348;2022-07-23T06:13:35;112.60;;;2.40;;
8411;SDS011;4243;49.296;11.348;2022-07-23T06:16:03;113.20;;;2.30;;
8411;SDS011;4243;49.296;11.348;2022-07-23T06:18:30;113.00;;;2.63;;
8411;SDS011;4243;49.296;11.348;2022-07-23T06:20:58;112.37;;;2.40;;
8411;SDS011;4243;49.296;11.348;2022-07-23T06:23:26;112.17;;;2.70;;
8411;SDS011;4243;49.296;11.348;2022-07-23T06:25:53;111.73;;;2.43;;
8411;SDS011;4243;49.296;11.348;2022-07-23T06:28:21;111.87;;;2.70;;
8411;SDS011;4243;49.296;11.348;2022-07-23T06:30:49;112.37;;;2.60;;
8411;SDS011;4243;49.296;11.348;2022-07-23T06:33:17;112.17;;;2.30;;
8411;SDS011;4243;49.296;11.348;2022-07-23T06:35:44;112.10;;;2.33;;
8411;SDS011;4243;49.296;11.348;2022-07-23T06:38:12;111.87;;;2.23;;
8411;SDS011;4243;49.296;11.348;2022-07-23T06:40:40;112.10;;;2.40;;
8411;SDS011;4243;49.296;11.348;2022-07-23T06:43:09;111.90;;;2.60;;
8411;SDS011;4243;49.296;11.348;2022-07-23T06:45:37;112.10;;;2.70;;
8411;SDS011;4243;49.296;11.348;2022-07-23T06:48:04;111.67;;;2.53;;
8411;SDS011;4243;49.296;11.348;2022-07-23T06:50:33;112.27;;;2.93;;
8411;SDS011;4243;49.296;11.348;2022-07-23T06:53:01;112.70;;;3.30;;
8411;SDS011;4243;49.296;11.348;2022-07-23T06:55:28;112.27;;;3.70;;
8411;SDS011;4243;49.296;11.348;2022-07-23T06:57:57;111.77;;;3.87;;
8411;SDS011;4243;49.296;11.348;2022-07-23T07:00:24;111.97;;;4.70;;
8411;SDS011;4243;49.296;11.348;2022-07-23T07:02:53;112.57;;;5.13;;
8411;SDS011;4243;49.296;11.348;2022-07-23T07:05:21;112.57;;;5.40;;
8411;SDS011;4243;49.296;11.348;2022-07-23T07:07:49;112.20;;;5.30;;
8411;SDS011;4243;49.296;11.348;2022-07-23T07:10:16;112.07;;;5.70;;
8411;SDS011;4243;49.296;11.348;2022-07-23T07:12:44;112.40;;;5.70;;
8411;SDS011;4243;49.296;11.348;2022-07-23T07:15:12;111.37;;;5.10;;
8411;SDS011;4243;49.296;11.348;2022-07-23T07:17:39;111.13;;;4.90;;
8411;SDS011;4243;49.296;11.348;2022-07-23T07:20:08;111.17;;;5.67;;
8411;SDS011;4243;49.296;11.348;2022-07-23T07:22:36;110.60;;;5.00;;
8411;SDS011;4243;49.296;11.348;2022-07-23T07:25:03;110.60;;;4.60;;
8411;SDS011;4243;49.296;11.348;2022-07-23T07:27:32;111.10;;;4.70;;
8411;SDS011;4243;49.296;11.348;2022-07-23T07:30:00;111.17;;;4.83;;
8411;SDS011;4243;49.296;11.348;2022-07-23T07:32:28;110.87;;;4.77;;
8411;SDS011;4243;49.296;11.348;2022-07-23T07:35:16;111.30;;;5.17;;
8411;SDS011;4243;49.296;11.348;2022-07-23T07:37:43;110.60;;;4.40;;
8411;SDS011;4243;49.296;11.348;2022-07-23T07:40:11;110.53;;;4.17;;
8411;SDS011;4243;49.296;11.348;2022-07-23T07:42:45;111.10;;;3.97;;
8411;SDS011;4243;49.296;11.348;2022-07-23T07:45:14;111.27;;;4.77;;
8411;SDS011;4243;49.296;11.348;2022-07-23T07:47:42;111.87;;;5.20;;
8411;SDS011;4243;49.296;11.348;2022-07-23T07:50:09;112.10;;;4.80;;
8411;SDS011;4243;49.296;11.348;2022-07-23T07:52:37;113.70;;;4.93;;
8411;SDS011;4243;49.296;11.348;2022-07-23T07:55:06;111.40;;;4.87;;
8411;SDS011;4243;49.296;11.348;2022-07-23T07:57:35;111.20;;;5.07;;
8411;SDS011;4243;49.296;11.348;2022-07-23T08:00:06;112.50;;;8.10;;
8411;SDS011;4243;49.296;11.348;2022-07-23T08:03:51;112.00;;;6.80;;
8411;SDS011;4243;49.296;11.348;2022-07-23T08:06:20;109.87;;;5.70;;
8411;SDS011;4243;49.296;11.348;2022-07-23T08:08:48;108.00;;;3.07;;
8411;SDS011;4243;49.296;11.348;2022-07-23T08:11:16;109.37;;;4.40;;
8411;SDS011;4243;49.296;11.348;2022-07-23T08:13:43;110.27;;;6.27;;
8411;SDS011;4243;49.296;11.348;2022-07-23T08:16:11;111.03;;;6.30;;
8411;SDS011;4243;49.296;11.348;2022-07-23T08:18:38;109.80;;;7.10;;
8411;SDS011;4243;49.296;11.348;2022-07-23T08:21:06;108.47;;;6.03;;
8411;SDS011;4243;49.296;11.348;2022-07-23T08:23:34;108.47;;;4.83;;
8411;SDS011;4243;49.296;11.348;2022-07-23T08:26:01;106.80;;;2.70;;
8411;SDS011;4243;49.296;11.348;2022-07-23T08:28:29;105.37;;;1.80;;
8411;SDS011;4243;49.296;11.348;2022-07-23T08:30:59;105.27;;;1.60;;
8411;SDS011;4243;49.296;11.348;2022-07-23T08:33:28;104.87;;;1.50;;
8411;SDS011;4243;49.296;11.348;2022-07-23T08:36:00;105.17;;;1.50;;
8411;SDS011;4243;49.296;11.348;2022-07-23T08:38:31;104.77;;;1.60;;
8411;SDS011;4243;49.296;11.348;2022-07-23T08:40:59;103.97;;;1.90;;
8411;SDS011;4243;49.296;11.348;2022-07-23T08:43:31;104.10;;;2.13;;
8411;SDS011;4243;49.296;11.348;2022-07-23T08:46:00;104.63;;;4.70;;
8411;SDS011;4243;49.296;11.348;2022-07-23T08:48:33;103.77;;;5.80;;
8411;SDS011;4243;49.296;11.348;2022-07-23T08:51:06;107.33;;;11.70;;
8411;SDS011;4243;49.296;11.348;2022-07-23T08:53:33;111.73;;;20.07;;
8411;SDS011;4243;49.296;11.348;2022-07-23T08:56:05;111.77;;;20.90;;
8411;SDS011;4243;49.296;11.348;2022-07-23T08:58:35;108.60;;;16.23;;
8411;SDS011;4243;49.296;11.348;2022-07-23T09:01:02;103.80;;;7.83;;
8411;SDS011;4243;49.296;11.348;2022-07-23T09:03:33;104.47;;;8.50;;
8411;SDS011;4243;49.296;11.348;2022-07-23T09:06:04;106.87;;;11.80;;
8411;SDS011;4243;49.296;11.348;2022-07-23T09:11:06;114.97;;;21.67;;
8411;SDS011;4243;49.296;11.348;2022-07-23T09:13:48;111.30;;;13.00;;
8411;SDS011;4243;49.296;11.348;2022-07-23T09:16:24;128.23;;;22.23;;
8411;SDS011;4243;49.296;11.348;2022-07-23T09:18:59;116.90;;;19.40;;
8411;SDS011;4243;49.296;11.348;2022-07-23T09:21:32;114.60;;;13.60;;
8411;SDS011;4243;49.296;11.348;2022-07-23T09:24:03;113.83;;;10.70;;
8411;SDS011;4243;49.296;11.348;2022-07-23T09:26:36;110.80;;;4.30;;
8411;SDS011;4243;49.296;11.348;2022-07-23T09:31:57;110.77;;;2.90;;
8411;SDS011;4243;49.296;11.348;2022-07-23T09:34:28;111.87;;;3.80;;
8411;SDS011;4243;49.296;11.348;2022-07-23T09:37:09;112.60;;;5.10;;
8411;SDS011;4243;49.296;11.348;2022-07-23T09:39:41;113.50;;;6.17;;
8411;SDS011;4243;49.296;11.348;2022-07-23T09:42:18;113.80;;;6.20;;
8411;SDS011;4243;49.296;11.348;2022-07-23T09:44:48;114.70;;;7.57;;
8411;SDS011;4243;49.296;11.348;2022-07-23T09:47:19;114.77;;;7.90;;
8411;SDS011;4243;49.296;11.348;2022-07-23T09:52:44;114.37;;;5.50;;
8411;SDS011;4243;49.296;11.348;2022-07-23T09:55:18;113.27;;;5.30;;
8411;SDS011;4243;49.296;11.348;2022-07-23T09:57:46;112.47;;;4.00;;
8411;SDS011;4243;49.296;11.348;2022-07-23T10:00:17;113.00;;;4.00;;
8411;SDS011;4243;49.296;11.348;2022-07-23T10:02:46;113.00;;;4.00;;
8411;SDS011;4243;49.296;11.348;2022-07-23T10:05:28;113.10;;;4.00;;
8411;SDS011;4243;49.296;11.348;2022-07-23T10:08:12;113.57;;;4.63;;
8411;SDS011;4243;49.296;11.348;2022-07-23T10:10:58;114.83;;;6.03;;
8411;SDS011;4243;49.296;11.348;2022-07-23T10:13:58;114.50;;;5.10;;
8411;SDS011;4243;49.296;11.348;2022-07-23T10:16:54;114.70;;;5.80;;
8411;SDS011;4243;49.296;11.348;2022-07-23T10:19:22;115.50;;;6.30;;
8411;SDS011;4243;49.296;11.348;2022-07-23T10:21:58;115.20;;;6.10;;
8411;SDS011;4243;49.296;11.348;2022-07-23T10:24:52;115.20;;;6.07;;
8411;SDS011;4243;49.296;11.348;2022-07-23T10:27:44;115.03;;;6.10;;
8411;SDS011;4243;49.296;11.348;2022-07-23T10:34:16;115.30;;;5.80;;
8411;SDS011;4243;49.296;11.348;2022-07-23T10:37:17;114.53;;;5.70;;
8411;SDS011;4243;49.296;11.348;2022-07-23T10:40:14;114.80;;;6.27;;
8411;SDS011;4243;49.296;11.348;2022-07-23T10:42:48;114.47;;;5.57;;
8411;SDS011;4243;49.296;11.348;2022-07-23T10:45:22;114.30;;;5.60;;
8411;SDS011;4243;49.296;11.348;2022-07-23T10:48:20;113.40;;;5.40;;
8411;SDS011;4243;49.296;11.348;2022-07-23T10:59:21;114.20;;;6.30;;
8411;SDS011;4243;49.296;11.348;2022-07-23T11:01:48;114.00;;;5.00;;
8411;SDS011;4243;49.296;11.348;2022-07-23T11:04:18;114.73;;;6.00;;
8411;SDS011;4243;49.296;11.348;2022-07-23T11:17:30;114.87;;;5.43;;
8411;SDS011;4243;49.296;11.348;2022-07-23T11:20:19;115.30;;;5.30;;
8411;SDS011;4243;49.296;11.348;2022-07-23T11:22:54;115.70;;;5.57;;
8411;SDS011;4243;49.296;11.348;2022-07-23T11:27:54;114.73;;;3.33;;
8411;SDS011;4243;49.296;11.348;2022-07-23T11:30:43;113.97;;;2.80;;
8411;SDS011;4243;49.296;11.348;2022-07-23T11:35:43;116.30;;;4.20;;
8411;SDS011;4243;49.296;11.348;2022-07-23T11:38:16;116.77;;;5.10;;
8411;SDS011;4243;49.296;11.348;2022-07-23T11:40:47;115.97;;;3.60;;
8411;SDS011;4243;49.296;11.348;2022-07-23T11:43:21;116.57;;;2.70;;
8411;SDS011;4243;49.296;11.348;2022-07-23T11:45:50;116.27;;;3.73;;
8411;SDS011;4243;49.296;11.348;2022-07-23T11:48:29;117.87;;;7.47;;
8411;SDS011;4243;49.296;11.348;2022-07-23T11:51:06;119.93;;;9.40;;
8411;SDS011;4243;49.296;11.348;2022-07-23T11:53:34;120.87;;;11.60;;
8411;SDS011;4243;49.296;11.348;2022-07-23T11:56:09;119.97;;;10.30;;
8411;SDS011;4243;49.296;11.348;2022-07-23T11:58:37;118.17;;;9.73;;
8411;SDS011;4243;49.296;11.348;2022-07-23T12:01:05;117.07;;;11.30;;
8411;SDS011;4243;49.296;11.348;2022-07-23T12:03:48;113.97;;;9.10;;
8411;SDS011;4243;49.296;11.348;2022-07-23T12:06:17;112.77;;;4.77;;
8411;SDS011;4243;49.296;11.348;2022-07-23T12:08:45;112.83;;;4.97;;
8411;SDS011;4243;49.296;11.348;2022-07-23T12:11:13;111.07;;;2.60;;
8411;SDS011;4243;49.296;11.348;2022-07-23T12:13:44;110.23;;;2.03;;
8411;SDS011;4243;49.296;11.348;2022-07-23T12:16:26;109.27;;;2.40;;
8411;SDS011;4243;49.296;11.348;2022-07-23T12:18:55;109.00;;;3.60;;
8411;SDS011;4243;49.296;11.348;2022-07-23T12:21:22;108.90;;;2.40;;
8411;SDS011;4243;49.296;11.348;2022-07-23T12:23:50;106.50;;;2.03;;
8411;SDS011;4243;49.296;11.348;2022-07-23T12:26:19;105.70;;;2.33;;
8411;SDS011;4243;49.296;11.348;2022-07-23T12:28:51;105.80;;;2.53;;
8411;SDS011;4243;49.296;11.348;2022-07-23T12:31:25;104.67;;;2.93;;
8411;SDS011;4243;49.296;11.348;2022-07-23T12:33:53;106.30;;;7.33;;
8411;SDS011;4243;49.296;11.348;2022-07-23T12:36:36;104.63;;;4.53;;
8411;SDS011;4243;49.296;11.348;2022-07-23T12:39:05;103.67;;;2.30;;
8411;SDS011;4243;49.296;11.348;2022-07-23T12:41:52;104.17;;;1.53;;
8411;SDS011;4243;49.296;11.348;2022-07-23T12:44:20;101.97;;;1.50;;
8411;SDS011;4243;49.296;11.348;2022-07-23T12:46:51;101.60;;;1.40;;
8411;SDS011;4243;49.296;11.348;2022-07-23T12:49:26;101.63;;;2.37;;
8411;SDS011;4243;49.296;11.348;2022-07-23T12:51:55;103.97;;;5.07;;
8411;SDS011;4243;49.296;11.348;2022-07-23T12:54:27;105.67;;;7.20;;
8411;SDS011;4243;49.296;11.348;2022-07-23T12:56:54;106.77;;;9.70;;
8411;SDS011;4243;49.296;11.348;2022-07-23T12:59:22;107.60;;;10.43;;
8411;SDS011;4243;49.296;11.348;2022-07-23T13:01:54;107.77;;;9.67;;
8411;SDS011;4243;49.296;11.348;2022-07-23T13:04:28;111.53;;;14.57;;
8411;SDS011;4243;49.296;11.348;2022-07-23T13:06:58;110.47;;;12.27;;
8411;SDS011;4243;49.296;11.348;2022-07-23T13:09:31;108.70;;;8.00;;
8411;SDS011;4243;49.296;11.348;2022-07-23T13:12:07;108.17;;;6.67;;
8411;SDS011;4243;49.296;11.348;2022-07-23T13:14:36;107.67;;;6.60;;
8411;SDS011;4243;49.296;11.348;2022-07-23T13:17:04;109.07;;;9.63;;
8411;SDS011;4243;49.296;11.348;2022-07-23T13:19:33;112.07;;;10.40;;
8411;SDS011;4243;49.296;11.348;2022-07-23T13:22:00;111.63;;;13.90;;
8411;SDS011;4243;49.296;11.348;2022-07-23T13:24:35;114.40;;;17.63;;
8411;SDS011;4243;49.296;11.348;2022-07-23T13:27:05;112.70;;;14.40;;
8411;SDS011;4243;49.296;11.348;2022-07-23T13:29:37;112.17;;;12.50;;
8411;SDS011;4243;49.296;11.348;2022-07-23T13:32:04;109.90;;;8.37;;
8411;SDS011;4243;49.296;11.348;2022-07-23T13:34:39;109.47;;;6.80;;
8411;SDS011;4243;49.296;11.348;2022-07-23T13:37:07;109.23;;;5.60;;
8411;SDS011;4243;49.296;11.348;2022-07-23T13:39:35;108.30;;;4.20;;
8411;SDS011;4243;49.296;11.348;2022-07-23T13:42:05;108.20;;;4.00;;
8411;SDS011;4243;49.296;11.348;2022-07-23T13:44:34;108.63;;;5.03;;
8411;SDS011;4243;49.296;11.348;2022-07-23T13:47:02;108.50;;;6.10;;
8411;SDS011;4243;49.296;11.348;2022-07-23T13:49:30;108.87;;;6.80;;
8411;SDS011;4243;49.296;11.348;2022-07-23T13:52:03;109.60;;;7.57;;
8411;SDS011;4243;49.296;11.348;2022-07-23T13:54:33;109.07;;;9.60;;
8411;SDS011;4243;49.296;11.348;2022-07-23T13:57:01;110.40;;;11.80;;
8411;SDS011;4243;49.296;11.348;2022-07-23T13:59:31;109.80;;;13.23;;
8411;SDS011;4243;49.296;11.348;2022-07-23T14:01:58;108.83;;;13.40;;
8411;SDS011;4243;49.296;11.348;2022-07-23T14:04:45;110.10;;;15.27;;
8411;SDS011;4243;49.296;11.348;2022-07-23T14:07:13;109.87;;;13.70;;
8411;SDS011;4243;49.296;11.348;2022-07-23T14:09:42;110.00;;;13.80;;
8411;SDS011;4243;49.296;11.348;2022-07-23T14:12:10;109.20;;;11.73;;
8411;SDS011;4243;49.296;11.348;2022-07-23T14:14:38;109.30;;;11.00;;
8411;SDS011;4243;49.296;11.348;2022-07-23T14:17:05;108.70;;;10.67;;
8411;SDS011;4243;49.296;11.348;2022-07-23T14:19:53;108.47;;;9.97;;
8411;SDS011;4243;49.296;11.348;2022-07-23T14:22:20;108.53;;;10.00;;
8411;SDS011;4243;49.296;11.348;2022-07-23T14:24:48;106.80;;;9.00;;
8411;SDS011;4243;49.296;11.348;2022-07-23T14:27:16;107.30;;;12.77;;
8411;SDS011;4243;49.296;11.348;2022-07-23T14:29:46;103.47;;;6.63;;
8411;SDS011;4243;49.296;11.348;2022-07-23T14:32:14;103.17;;;5.00;;
8411;SDS011;4243;49.296;11.348;2022-07-23T14:34:41;102.40;;;4.70;;
8411;SDS011;4243;49.296;11.348;2022-07-23T14:37:10;102.17;;;4.67;;
8411;SDS011;4243;49.296;11.348;2022-07-23T14:39:40;101.30;;;4.00;;
8411;SDS011;4243;49.296;11.348;2022-07-23T14:42:11;101.83;;;3.33;;
8411;SDS011;4243;49.296;11.348;2022-07-23T14:44:39;100.47;;;2.70;;
8411;SDS011;4243;49.296;11.348;2022-07-23T14:47:08;101.07;;;2.30;;
8411;SDS011;4243;49.296;11.348;2022-07-23T14:49:36;101.43;;;2.30;;
8411;SDS011;4243;49.296;11.348;2022-07-23T14:52:04;101.17;;;2.43;;
8411;SDS011;4243;49.296;11.348;2022-07-23T14:54:33;100.80;;;2.03;;
8411;SDS011;4243;49.296;11.348;2022-07-23T14:57:01;100.50;;;2.07;;
8411;SDS011;4243;49.296;11.348;2022-07-23T14:59:30;100.60;;;1.90;;
8411;SDS011;4243;49.296;11.348;2022-07-23T15:01:57;100.47;;;2.00;;
8411;SDS011;4243;49.296;11.348;2022-07-23T15:04:25;101.37;;;1.90;;
8411;SDS011;4243;49.296;11.348;2022-07-23T15:07:03;101.30;;;1.90;;
8411;SDS011;4243;49.296;11.348;2022-07-23T15:09:31;100.50;;;1.70;;
8411;SDS011;4243;49.296;11.348;2022-07-23T15:12:01;101.43;;;2.33;;
8411;SDS011;4243;49.296;11.348;2022-07-23T15:14:31;101.23;;;3.33;;
8411;SDS011;4243;49.296;11.348;2022-07-23T15:17:00;103.07;;;3.43;;
8411;SDS011;4243;49.296;11.348;2022-07-23T15:19:27;103.87;;;4.33;;
8411;SDS011;4243;49.296;11.348;2022-07-23T15:21:56;104.73;;;4.30;;
8411;SDS011;4243;49.296;11.348;2022-07-23T15:24:27;106.07;;;5.70;;
8411;SDS011;4243;49.296;11.348;2022-07-23T15:26:54;106.17;;;4.53;;